createdAt,value
2019-05-17T00:01:17.062Z,6.30
2019-05-17T00:03:47.107Z,6.30
2019-05-17T00:06:16.854Z,6.30
2019-05-17T00:08:47.269Z,6.40
2019-05-17T00:11:16.911Z,6.40
2019-05-17T00:13:46.616Z,6.40
2019-05-17T00:16:17.464Z,6.30
2019-05-17T00:18:46.646Z,6.40
2019-05-17T00:21:16.997Z,6.40
2019-05-17T00:23:46.966Z,6.40
2019-05-17T00:26:16.423Z,6.40
2019-05-17T00:28:46.957Z,6.40
2019-05-17T00:31:17.203Z,6.40
2019-05-17T00:33:47.133Z,6.40
2019-05-17T00:36:17.875Z,6.30
2019-05-17T00:38:51.274Z,6.30
2019-05-17T00:41:17.924Z,6.30
2019-05-17T00:43:46.882Z,6.30
2019-05-17T00:46:17.277Z,6.30
2019-05-17T00:48:46.649Z,6.30
2019-05-17T00:51:16.694Z,6.30
2019-05-17T00:53:46.826Z,6.20
2019-05-17T00:56:17.163Z,6.20
2019-05-17T00:58:47.762Z,6.20
2019-05-17T01:01:17.417Z,6.10
2019-05-17T01:03:47.674Z,6.20
2019-05-17T01:06:17.089Z,6.20
2019-05-17T01:08:47.503Z,6.10
2019-05-17T01:11:16.759Z,6.10
2019-05-17T01:13:46.686Z,6.10
2019-05-17T01:16:16.589Z,6.10
2019-05-17T01:18:47.048Z,6.00
2019-05-17T01:21:17.288Z,6.00
2019-05-17T01:23:46.789Z,6.00
2019-05-17T01:26:18.250Z,6.00
2019-05-17T01:28:46.867Z,6.00
2019-05-17T01:31:17.224Z,6.00
2019-05-17T01:33:47.432Z,6.00
2019-05-17T01:36:17.375Z,6.00
2019-05-17T01:38:46.948Z,6.00
2019-05-17T01:41:17.330Z,6.00
2019-05-17T01:43:47.447Z,6.00
2019-05-17T01:46:17.279Z,6.00
2019-05-17T01:48:47.099Z,6.00
2019-05-17T01:51:16.923Z,5.90
2019-05-17T01:53:46.979Z,6.00
2019-05-17T01:56:16.908Z,6.00
2019-05-17T01:58:46.991Z,5.90
2019-05-17T02:01:16.961Z,5.90
2019-05-17T02:03:46.983Z,5.90
2019-05-17T02:06:16.686Z,5.90
2019-05-17T02:08:47.517Z,5.80
2019-05-17T02:11:18.407Z,5.80
2019-05-17T02:13:47.509Z,5.80
2019-05-17T02:16:16.678Z,5.80
2019-05-17T02:18:46.630Z,5.90
2019-05-17T02:21:16.828Z,5.90
2019-05-17T02:23:46.902Z,5.80
2019-05-17T02:26:17.322Z,5.80
2019-05-17T02:28:46.703Z,5.90
2019-05-17T02:31:15.822Z,5.90
2019-05-17T02:33:44.954Z,5.90
2019-05-17T02:36:14.470Z,5.80
2019-05-17T02:38:43.715Z,5.80
2019-05-17T02:41:14.089Z,5.90
2019-05-17T02:43:43.603Z,5.90
2019-05-17T02:46:13.605Z,5.90
2019-05-17T02:48:43.060Z,6.00
2019-05-17T02:51:13.100Z,6.00
2019-05-17T02:53:43.093Z,6.00
2019-05-17T02:56:13.412Z,6.00
2019-05-17T02:58:44.048Z,6.00
2019-05-17T03:01:13.126Z,6.10
2019-05-17T03:03:43.702Z,6.10
2019-05-17T03:06:13.610Z,6.10
2019-05-17T03:08:43.017Z,6.20
2019-05-17T03:11:13.441Z,6.20
2019-05-17T03:13:43.377Z,6.20
2019-05-17T03:16:14.710Z,6.20
2019-05-17T03:18:43.996Z,6.20
2019-05-17T03:21:13.653Z,6.20
2019-05-17T03:23:43.689Z,6.20
2019-05-17T03:26:13.444Z,6.20
2019-05-17T03:28:42.859Z,6.20
2019-05-17T03:31:16.536Z,6.30
2019-05-17T03:33:45.986Z,6.20
2019-05-17T03:36:16.778Z,6.20
2019-05-17T03:38:45.752Z,6.30
2019-05-17T03:41:23.343Z,6.30
2019-05-17T03:43:45.400Z,6.30
2019-05-17T03:46:14.432Z,6.40
2019-05-17T03:48:43.747Z,6.40
2019-05-17T03:51:13.250Z,6.50
2019-05-17T03:53:44.218Z,6.50
2019-05-17T03:56:13.888Z,6.60
2019-05-17T03:58:43.483Z,6.70
2019-05-17T04:01:13.960Z,6.70
2019-05-17T04:03:43.660Z,6.70
2019-05-17T04:06:13.294Z,6.80
2019-05-17T04:08:43.075Z,6.80
2019-05-17T04:11:22.227Z,6.90
2019-05-17T04:13:43.134Z,6.90
2019-05-17T04:16:13.970Z,7.00
2019-05-17T04:18:43.658Z,7.10
2019-05-17T04:21:12.785Z,7.20
2019-05-17T04:23:42.936Z,7.30
2019-05-17T04:26:13.479Z,7.30
2019-05-17T04:28:44.023Z,7.40
2019-05-17T04:31:13.495Z,7.40
2019-05-17T04:33:43.273Z,7.40
2019-05-17T04:36:13.308Z,7.50
2019-05-17T04:38:43.541Z,7.60
2019-05-17T04:41:13.402Z,7.70
2019-05-17T04:43:42.765Z,7.90
2019-05-17T04:46:12.969Z,8.10
2019-05-17T04:48:43.781Z,8.30
2019-05-17T04:51:13.425Z,8.50
2019-05-17T04:53:43.172Z,8.70
2019-05-17T04:56:14.092Z,8.70
2019-05-17T04:58:43.142Z,8.70
2019-05-17T05:01:13.254Z,8.70
2019-05-17T05:03:43.304Z,8.70
2019-05-17T05:06:13.347Z,8.70
2019-05-17T05:08:42.740Z,8.80
2019-05-17T05:11:12.673Z,9.00
2019-05-17T05:13:42.607Z,9.30
2019-05-17T05:16:13.485Z,9.50
2019-05-17T05:18:42.981Z,9.80
2019-05-17T05:21:12.295Z,9.90
2019-05-17T05:23:42.417Z,9.80
2019-05-17T05:26:12.063Z,9.80
2019-05-17T05:28:41.995Z,9.90
2019-05-17T05:31:13.086Z,9.90
2019-05-17T05:33:42.018Z,10.20
2019-05-17T05:36:11.474Z,10.60
2019-05-17T05:38:42.271Z,11.00
2019-05-17T05:41:12.202Z,11.40
2019-05-17T05:43:41.949Z,11.70
2019-05-17T05:46:11.764Z,12.00
2019-05-17T05:48:41.613Z,12.00
2019-05-17T05:51:13.395Z,12.10
2019-05-17T05:53:41.956Z,12.00
2019-05-17T05:56:13.321Z,11.90
2019-05-17T05:58:42.849Z,11.90
2019-05-17T06:01:12.742Z,11.90
2019-05-17T06:03:41.951Z,11.90
2019-05-17T06:06:12.386Z,12.00
2019-05-17T06:08:41.603Z,12.30
2019-05-17T06:11:12.309Z,12.40
2019-05-17T06:13:41.952Z,12.80
2019-05-17T06:16:11.929Z,13.00
2019-05-17T06:18:42.486Z,13.00
2019-05-17T06:21:12.168Z,13.10
2019-05-17T06:23:42.395Z,13.30
2019-05-17T06:26:12.486Z,13.40
2019-05-17T06:28:42.533Z,13.60
2019-05-17T06:31:11.709Z,13.70
2019-05-17T06:33:42.198Z,13.90
2019-05-17T06:36:13.511Z,14.10
2019-05-17T06:38:42.136Z,14.40
2019-05-17T06:41:12.626Z,14.50
2019-05-17T06:43:41.944Z,14.20
2019-05-17T06:46:12.398Z,13.70
2019-05-17T06:48:42.395Z,13.20
2019-05-17T06:51:12.082Z,13.00
2019-05-17T06:53:43.368Z,13.00
2019-05-17T06:56:12.815Z,13.20
2019-05-17T06:58:42.007Z,13.50
2019-05-17T07:01:11.089Z,13.90
2019-05-17T07:03:40.175Z,14.30
2019-05-17T07:06:11.038Z,14.80
2019-05-17T07:08:40.255Z,14.90
2019-05-17T07:11:09.835Z,14.80
2019-05-17T07:13:39.590Z,14.60
2019-05-17T07:16:10.227Z,14.40
2019-05-17T07:18:39.983Z,14.60
2019-05-17T07:21:10.025Z,15.50
2019-05-17T07:23:39.673Z,16.80
2019-05-17T07:26:09.789Z,17.40
2019-05-17T07:28:40.469Z,18.00
2019-05-17T07:31:10.125Z,18.80
2019-05-17T07:33:39.930Z,19.40
2019-05-17T07:36:10.216Z,21.00
2019-05-17T07:38:39.819Z,23.60
2019-05-17T07:41:10.119Z,24.90
2019-05-17T07:43:40.443Z,27.30
2019-05-17T07:46:09.705Z,29.40
2019-05-17T07:48:40.570Z,30.60
2019-05-17T07:51:10.097Z,30.80
2019-05-17T07:53:40.040Z,30.60
2019-05-17T07:56:10.283Z,28.70
2019-05-17T07:58:40.435Z,28.30
2019-05-17T08:01:10.055Z,29.20
2019-05-17T08:03:40.600Z,31.20
2019-05-17T08:06:10.535Z,31.60
2019-05-17T08:08:40.905Z,32.40
2019-05-17T08:11:10.752Z,32.30
2019-05-17T08:13:39.972Z,30.30
2019-05-17T08:16:10.256Z,29.80
2019-05-17T08:18:40.249Z,30.90
2019-05-17T08:21:10.347Z,32.60
2019-05-17T08:23:40.155Z,33.30
2019-05-17T08:26:10.734Z,34.10
2019-05-17T08:28:40.438Z,35.00
2019-05-17T08:31:09.997Z,35.70
2019-05-17T08:33:40.613Z,36.20
2019-05-17T08:36:09.968Z,36.10
2019-05-17T08:38:39.441Z,36.00
2019-05-17T08:41:10.511Z,35.30
2019-05-17T08:43:46.116Z,35.00
2019-05-17T08:46:10.547Z,34.30
2019-05-17T08:48:40.117Z,32.80
2019-05-17T08:51:10.729Z,32.70
2019-05-17T08:53:40.049Z,33.50
2019-05-17T08:56:09.990Z,34.90
2019-05-17T08:58:40.394Z,35.70
2019-05-17T09:01:11.228Z,36.40
2019-05-17T09:03:41.245Z,35.20
2019-05-17T09:06:12.370Z,32.60
2019-05-17T09:08:41.050Z,30.10
2019-05-17T09:11:10.132Z,27.60
2019-05-17T09:13:40.108Z,26.70
2019-05-17T09:16:10.736Z,27.20
2019-05-17T09:18:39.951Z,26.70
2019-05-17T09:21:09.694Z,25.90
2019-05-17T09:23:39.626Z,24.30
2019-05-17T09:26:10.073Z,22.90
2019-05-17T09:28:39.518Z,21.70
2019-05-17T09:31:10.447Z,22.70
2019-05-17T09:33:40.584Z,24.80
2019-05-17T09:36:10.244Z,24.50
2019-05-17T09:38:40.430Z,23.20
2019-05-17T09:41:09.752Z,22.00
2019-05-17T09:43:40.259Z,21.20
2019-05-17T09:46:10.604Z,20.80
2019-05-17T09:48:40.073Z,20.40
2019-05-17T09:51:10.505Z,20.00
2019-05-17T09:53:40.455Z,19.80
2019-05-17T09:56:09.880Z,19.80
2019-05-17T09:58:39.699Z,19.90
2019-05-17T10:01:09.545Z,20.00
2019-05-17T10:03:39.755Z,20.40
2019-05-17T10:06:09.863Z,20.80
2019-05-17T10:08:39.421Z,20.90
2019-05-17T10:11:11.855Z,20.70
2019-05-17T10:13:39.465Z,20.40
2019-05-17T10:16:10.121Z,20.10
2019-05-17T10:18:40.073Z,19.90
2019-05-17T10:21:10.450Z,19.70
2019-05-17T10:23:40.639Z,19.50
2019-05-17T10:26:10.245Z,19.40
2019-05-17T10:28:40.108Z,19.10
2019-05-17T10:31:11.368Z,19.10
2019-05-17T10:33:40.218Z,19.20
2019-05-17T10:36:09.249Z,19.40
2019-05-17T10:38:39.570Z,19.70
2019-05-17T10:41:10.091Z,19.90
2019-05-17T10:43:39.444Z,20.20
2019-05-17T10:46:10.544Z,20.50
2019-05-17T10:48:41.092Z,20.50
2019-05-17T10:51:13.263Z,20.50
2019-05-17T10:53:40.814Z,20.30
2019-05-17T10:56:10.098Z,20.20
2019-05-17T10:58:39.915Z,19.80
2019-05-17T11:01:10.251Z,19.40
2019-05-17T11:03:39.858Z,19.00
2019-05-17T11:06:10.935Z,18.90
2019-05-17T11:08:39.673Z,18.90
2019-05-17T11:11:10.241Z,19.00
2019-05-17T11:13:39.262Z,19.10
2019-05-17T11:16:08.341Z,19.30
2019-05-17T11:18:37.368Z,19.50
2019-05-17T11:21:06.769Z,19.60
2019-05-17T11:23:35.799Z,19.50
2019-05-17T11:26:04.926Z,19.60
2019-05-17T11:28:34.012Z,20.10
2019-05-17T11:31:03.132Z,20.70
2019-05-17T11:33:32.813Z,21.20
2019-05-17T11:36:01.777Z,21.60
2019-05-17T11:38:30.792Z,21.90
2019-05-17T11:40:59.915Z,22.00
2019-05-17T11:43:29.021Z,22.30
2019-05-17T11:45:58.089Z,22.30
2019-05-17T11:48:27.032Z,22.10
2019-05-17T11:50:56.278Z,22.20
2019-05-17T11:53:25.224Z,22.20
2019-05-17T11:55:54.475Z,22.20
2019-05-17T11:58:23.647Z,22.20
2019-05-17T12:00:52.677Z,22.30
2019-05-17T12:03:21.977Z,22.40
2019-05-17T12:05:51.174Z,22.50
2019-05-17T12:08:20.233Z,22.30
2019-05-17T12:10:49.428Z,22.20
2019-05-17T12:13:18.646Z,22.10
2019-05-17T12:15:47.652Z,22.10
2019-05-17T12:18:16.592Z,22.10
2019-05-17T12:20:46.044Z,22.20
2019-05-17T12:23:15.073Z,22.00
2019-05-17T12:25:44.174Z,22.20
2019-05-17T12:28:13.264Z,22.20
2019-05-17T12:30:42.321Z,22.40
2019-05-17T12:33:11.290Z,22.70
2019-05-17T12:35:40.293Z,23.00
2019-05-17T12:38:09.321Z,23.60
2019-05-17T12:40:38.605Z,24.30
2019-05-17T12:43:07.560Z,24.50
2019-05-17T12:45:36.617Z,24.50
2019-05-17T12:48:05.641Z,24.30
2019-05-17T12:50:34.696Z,24.30
2019-05-17T12:53:03.960Z,24.40
2019-05-17T12:55:33.058Z,24.30
2019-05-17T12:58:02.058Z,24.10
2019-05-17T13:00:31.086Z,24.00
2019-05-17T13:03:00.061Z,23.60
2019-05-17T13:05:29.162Z,23.10
2019-05-17T13:07:58.116Z,22.80
2019-05-17T13:10:27.199Z,22.50
2019-05-17T13:12:56.148Z,22.30
2019-05-17T13:15:25.219Z,22.30
2019-05-17T13:17:54.167Z,22.30
2019-05-17T13:20:23.268Z,22.40
2019-05-17T13:22:52.248Z,22.40
2019-05-17T13:25:21.941Z,22.60
2019-05-17T13:27:50.922Z,22.50
2019-05-17T13:30:20.910Z,22.20
2019-05-17T13:32:49.902Z,21.90
2019-05-17T13:35:19.010Z,21.60
2019-05-17T13:37:48.003Z,21.50
2019-05-17T13:40:17.133Z,21.50
2019-05-17T13:42:46.119Z,21.80
2019-05-17T13:45:15.612Z,21.90
2019-05-17T13:47:44.591Z,22.20
2019-05-17T13:50:15.815Z,22.30
2019-05-17T13:52:44.801Z,22.20
2019-05-17T13:55:14.009Z,22.20
2019-05-17T13:57:43.004Z,22.10
2019-05-17T14:00:12.428Z,21.90
2019-05-17T14:02:41.521Z,21.70
2019-05-17T14:05:10.604Z,21.60
2019-05-17T14:07:39.569Z,21.40
2019-05-17T14:10:24.550Z,21.20
2019-05-17T14:12:40.080Z,21.00
2019-05-17T14:15:10.302Z,20.80
2019-05-17T14:17:39.332Z,20.60
2019-05-17T14:20:08.867Z,20.80
2019-05-17T14:22:37.911Z,21.00
2019-05-17T14:25:07.373Z,21.30
2019-05-17T14:27:36.370Z,21.50
2019-05-17T14:30:06.096Z,22.00
2019-05-17T14:32:35.060Z,22.10
2019-05-17T14:35:04.460Z,22.20
2019-05-17T14:37:33.560Z,22.20
2019-05-17T14:40:02.574Z,22.10
2019-05-17T14:42:31.697Z,22.00
2019-05-17T14:45:00.636Z,21.70
2019-05-17T14:47:29.596Z,21.50
2019-05-17T14:49:58.637Z,21.20
2019-05-17T14:52:27.885Z,21.10
2019-05-17T14:54:56.929Z,20.80
2019-05-17T14:57:25.982Z,20.60
2019-05-17T14:59:54.949Z,20.30
2019-05-17T15:02:24.000Z,20.10
2019-05-17T15:04:53.105Z,20.00
2019-05-17T15:07:22.068Z,19.90
2019-05-17T15:09:51.086Z,19.80
2019-05-17T15:12:28.140Z,19.80
2019-05-17T15:14:50.764Z,19.90
2019-05-17T15:17:19.989Z,19.90
2019-05-17T15:19:51.286Z,19.90
2019-05-17T15:22:19.585Z,19.90
2019-05-17T15:24:48.547Z,20.00
2019-05-17T15:27:17.584Z,20.00
2019-05-17T15:29:46.563Z,20.00
2019-05-17T15:32:15.539Z,20.10
2019-05-17T15:34:44.899Z,20.20
2019-05-17T15:37:13.850Z,20.30
2019-05-17T15:39:42.812Z,20.30
2019-05-17T15:42:11.914Z,20.40
2019-05-17T15:44:41.359Z,20.40
2019-05-17T15:47:10.529Z,20.30
2019-05-17T15:49:39.545Z,20.20
2019-05-17T15:52:08.715Z,20.20
2019-05-17T15:54:37.704Z,20.10
2019-05-17T15:57:06.700Z,20.00
2019-05-17T15:59:35.732Z,20.00
2019-05-17T16:02:04.912Z,20.00
2019-05-17T16:04:33.996Z,20.10
2019-05-17T16:07:03.033Z,20.20
2019-05-17T16:09:32.468Z,20.40
2019-05-17T16:12:01.464Z,20.50
2019-05-17T16:14:30.594Z,20.60
2019-05-17T16:16:59.576Z,20.70
2019-05-17T16:19:28.728Z,20.60
2019-05-17T16:21:57.679Z,20.60
2019-05-17T16:24:26.649Z,20.60
2019-05-17T16:26:55.692Z,20.60
2019-05-17T16:29:24.680Z,20.60
2019-05-17T16:31:53.685Z,20.50
2019-05-17T16:34:22.677Z,20.40
2019-05-17T16:36:52.083Z,20.30
2019-05-17T16:39:21.130Z,20.30
2019-05-17T16:41:50.139Z,20.20
2019-05-17T16:44:19.153Z,20.20
2019-05-17T16:46:48.100Z,20.20
2019-05-17T16:49:17.064Z,20.10
2019-05-17T16:51:46.183Z,20.00
2019-05-17T16:54:15.345Z,19.90
2019-05-17T16:56:44.463Z,19.80
2019-05-17T16:59:13.604Z,19.70
2019-05-17T17:01:42.600Z,19.60
2019-05-17T17:04:11.641Z,19.50
2019-05-17T17:06:40.707Z,19.50
2019-05-17T17:09:09.851Z,19.40
2019-05-17T17:11:38.958Z,19.40
2019-05-17T17:14:09.044Z,19.30
2019-05-17T17:16:38.007Z,19.20
2019-05-17T17:19:07.372Z,19.10
2019-05-17T17:21:36.626Z,19.10
2019-05-17T17:24:06.365Z,19.10
2019-05-17T17:26:35.326Z,19.00
2019-05-17T17:29:04.577Z,19.00
2019-05-17T17:31:33.572Z,19.00
2019-05-17T17:34:02.632Z,18.90
2019-05-17T17:36:37.469Z,18.80
2019-05-17T17:39:06.737Z,18.70
2019-05-17T17:41:36.083Z,18.70
2019-05-17T17:44:05.338Z,18.60
2019-05-17T17:46:36.583Z,18.60
2019-05-17T17:49:05.761Z,18.50
2019-05-17T17:51:34.779Z,18.50
2019-05-17T17:54:04.058Z,18.40
2019-05-17T17:56:33.100Z,18.30
2019-05-17T17:59:02.287Z,18.20
2019-05-17T18:01:31.525Z,18.00
2019-05-17T18:04:00.649Z,17.90
2019-05-17T18:06:29.661Z,17.80
2019-05-17T18:08:58.607Z,17.60
2019-05-17T18:11:30.176Z,17.50
2019-05-17T18:14:12.393Z,17.40
2019-05-17T18:16:29.921Z,17.40
2019-05-17T18:18:59.280Z,17.30
2019-05-17T18:21:28.363Z,17.20
2019-05-17T18:23:57.480Z,17.10
2019-05-17T18:26:26.553Z,17.00
2019-05-17T18:28:55.603Z,17.00
2019-05-17T18:31:24.658Z,16.90
2019-05-17T18:33:54.394Z,16.80
2019-05-17T18:36:23.621Z,16.70
2019-05-17T18:38:54.642Z,16.60
2019-05-17T18:41:23.776Z,16.50
2019-05-17T18:43:53.075Z,16.40
2019-05-17T18:46:22.225Z,16.30
2019-05-17T18:48:51.287Z,16.20
2019-05-17T18:51:20.664Z,16.20
2019-05-17T18:53:49.773Z,16.10
2019-05-17T18:56:18.830Z,16.00
2019-05-17T18:58:47.814Z,16.00
2019-05-17T19:01:17.087Z,15.90
2019-05-17T19:03:46.907Z,15.80
2019-05-17T19:06:16.227Z,15.80
2019-05-17T19:08:45.172Z,15.70
2019-05-17T19:11:14.474Z,15.60
2019-05-17T19:13:43.460Z,15.60
2019-05-17T19:16:12.456Z,15.60
2019-05-17T19:18:41.421Z,15.50
2019-05-17T19:21:10.445Z,15.50
2019-05-17T19:23:40.015Z,15.50
2019-05-17T19:26:09.053Z,15.50
2019-05-17T19:28:38.002Z,15.40
2019-05-17T19:31:07.400Z,15.30
2019-05-17T19:33:36.381Z,15.30
2019-05-17T19:36:05.487Z,15.40
2019-05-17T19:38:34.557Z,15.40
2019-05-17T19:41:03.593Z,15.40
2019-05-17T19:43:32.568Z,15.30
2019-05-17T19:46:01.571Z,15.30
2019-05-17T19:48:30.550Z,15.20
2019-05-17T19:50:59.612Z,15.20
2019-05-17T19:53:28.580Z,15.10
2019-05-17T19:55:57.788Z,15.00
2019-05-17T19:58:26.801Z,15.00
2019-05-17T20:00:55.829Z,14.90
2019-05-17T20:03:24.776Z,14.90
2019-05-17T20:05:53.745Z,14.80
2019-05-17T20:08:22.732Z,14.80
2019-05-17T20:10:52.189Z,14.70
2019-05-17T20:13:21.477Z,14.80
2019-05-17T20:15:50.443Z,14.80
2019-05-17T20:18:19.740Z,14.70
2019-05-17T20:20:49.530Z,14.60
2019-05-17T20:23:18.797Z,14.60
2019-05-17T20:25:48.165Z,14.50
2019-05-17T20:28:17.149Z,14.40
2019-05-17T20:30:47.536Z,14.40
2019-05-17T20:33:16.720Z,14.30
2019-05-17T20:35:45.704Z,14.30
2019-05-17T20:38:14.704Z,14.30
2019-05-17T20:40:43.891Z,14.30
2019-05-17T20:43:13.006Z,14.30
2019-05-17T20:45:42.368Z,14.40
2019-05-17T20:48:11.533Z,14.40
2019-05-17T20:50:40.573Z,14.40
2019-05-17T20:53:18.265Z,14.50
2019-05-17T20:55:40.237Z,14.40
2019-05-17T20:58:09.248Z,14.40
2019-05-17T21:00:38.854Z,14.30
2019-05-17T21:03:07.862Z,14.20
2019-05-17T21:05:36.818Z,14.20
2019-05-17T21:08:05.979Z,14.20
2019-05-17T21:10:34.935Z,14.10
2019-05-17T21:13:04.045Z,14.00
2019-05-17T21:15:45.736Z,14.00
2019-05-17T21:18:04.316Z,13.90
2019-05-17T21:20:33.441Z,13.90
2019-05-17T21:23:02.429Z,13.90
2019-05-17T21:25:31.395Z,13.80
2019-05-17T21:28:00.628Z,13.70
2019-05-17T21:30:29.680Z,13.70
2019-05-17T21:32:58.717Z,13.60
2019-05-17T21:35:27.946Z,13.50
2019-05-17T21:37:56.930Z,13.40
2019-05-17T21:40:25.893Z,13.30
2019-05-17T21:42:54.897Z,13.20
2019-05-17T21:45:23.948Z,13.10
2019-05-17T21:47:52.928Z,13.10
2019-05-17T21:50:21.952Z,13.00
2019-05-17T21:52:50.939Z,12.90
2019-05-17T21:55:19.961Z,12.80
2019-05-17T21:57:48.992Z,12.80
2019-05-17T22:00:39.391Z,12.70
2019-05-17T22:03:08.502Z,12.70
2019-05-17T22:05:37.468Z,12.60
2019-05-17T22:08:07.456Z,12.60
2019-05-17T22:10:36.455Z,12.60
2019-05-17T22:13:05.508Z,12.60
2019-05-17T22:15:34.470Z,12.50
2019-05-17T22:18:03.535Z,12.50
2019-05-17T22:20:32.523Z,12.40
2019-05-17T22:23:01.487Z,12.40
2019-05-17T22:25:30.423Z,12.40
2019-05-17T22:27:59.359Z,12.30
2019-05-17T22:30:28.590Z,12.30
2019-05-17T22:32:57.548Z,12.30
2019-05-17T22:35:26.524Z,12.20
2019-05-17T22:37:55.488Z,12.20
2019-05-17T22:40:24.704Z,12.20
2019-05-17T22:42:53.672Z,12.10
2019-05-17T22:45:22.720Z,12.10
2019-05-17T22:47:52.035Z,12.10
2019-05-17T22:50:21.032Z,12.10
2019-05-17T22:52:50.056Z,11.90
2019-05-17T22:55:19.401Z,11.90
2019-05-17T22:57:48.353Z,11.80
2019-05-17T23:00:17.585Z,11.70
2019-05-17T23:02:46.572Z,11.70
2019-05-17T23:05:15.585Z,11.60
2019-05-17T23:07:44.592Z,11.60
2019-05-17T23:10:13.855Z,11.50
2019-05-17T23:12:42.817Z,11.50
2019-05-17T23:15:11.961Z,11.40
2019-05-17T23:17:40.900Z,11.30
2019-05-17T23:20:10.623Z,11.30
2019-05-17T23:22:39.586Z,11.30
2019-05-17T23:25:09.008Z,11.20
2019-05-17T23:27:37.954Z,11.20
2019-05-17T23:30:08.589Z,11.10
2019-05-17T23:32:37.629Z,11.10
2019-05-17T23:35:08.324Z,11.10
2019-05-17T23:37:37.277Z,11.10
2019-05-17T23:40:06.441Z,11.10
2019-05-17T23:42:35.397Z,11.10
2019-05-17T23:45:05.075Z,11.10
2019-05-17T23:47:33.931Z,11.10
2019-05-17T23:50:03.248Z,11.00
2019-05-17T23:52:32.220Z,11.00
2019-05-17T23:55:01.727Z,11.00
2019-05-17T23:57:30.663Z,11.00
2019-05-17T23:59:59.720Z,10.90
